createdAt,value
2023-01-10T00:01:06.895Z,5.41
2023-01-10T00:03:34.199Z,5.43
2023-01-10T00:06:01.802Z,5.40
2023-01-10T00:08:29.020Z,5.38
2023-01-10T00:10:56.625Z,5.34
2023-01-10T00:13:23.949Z,5.38
2023-01-10T00:15:53.083Z,5.40
2023-01-10T00:18:20.767Z,5.38
2023-01-10T00:20:49.590Z,5.36
2023-01-10T00:23:18.581Z,5.32
2023-01-10T00:25:46.591Z,5.31
2023-01-10T00:28:20.517Z,5.31
2023-01-10T00:30:55.864Z,5.32
2023-01-10T00:33:23.577Z,5.33
2023-01-10T00:35:51.525Z,5.35
2023-01-10T00:38:19.380Z,5.37
2023-01-10T00:40:46.755Z,5.38
2023-01-10T00:43:32.743Z,5.40
2023-01-10T00:46:00.332Z,5.41
2023-01-10T00:48:27.915Z,5.39
2023-01-10T00:50:55.247Z,5.41
2023-01-10T00:53:23.134Z,5.39
2023-01-10T00:55:50.315Z,5.40
2023-01-10T00:58:18.045Z,5.43
2023-01-10T01:00:51.433Z,5.42
2023-01-10T01:03:20.886Z,5.40
2023-01-10T01:05:49.009Z,5.40
2023-01-10T01:08:18.261Z,5.37
2023-01-10T01:10:46.050Z,5.35
2023-01-10T01:13:21.642Z,5.34
2023-01-10T01:15:49.771Z,5.39
2023-01-10T01:18:20.999Z,5.42
2023-01-10T01:20:52.641Z,5.38
2023-01-10T01:23:20.314Z,5.36
2023-01-10T01:25:51.027Z,5.20
2023-01-10T01:28:19.082Z,5.31
2023-01-10T01:30:46.638Z,5.35
2023-01-10T01:33:15.671Z,5.27
2023-01-10T01:35:44.531Z,5.38
2023-01-10T01:38:12.951Z,5.39
2023-01-10T01:40:41.844Z,5.38
2023-01-10T01:43:23.610Z,5.41
2023-01-10T01:45:51.674Z,5.41
2023-01-10T01:48:38.628Z,5.43
2023-01-10T01:51:08.869Z,5.40
2023-01-10T01:53:47.677Z,5.40
2023-01-10T01:56:23.565Z,5.46
2023-01-10T01:59:02.012Z,5.49
2023-01-10T02:01:31.267Z,5.50
2023-01-10T02:04:03.970Z,5.50
2023-01-10T02:06:31.090Z,5.47
2023-01-10T02:09:24.019Z,5.51
2023-01-10T02:11:51.317Z,5.53
2023-01-10T02:14:19.909Z,5.49
2023-01-10T02:16:47.151Z,5.48
2023-01-10T02:19:43.443Z,5.48
2023-01-10T02:23:01.572Z,5.46
2023-01-10T02:25:54.043Z,5.49
2023-01-10T02:28:58.743Z,5.49
2023-01-10T02:31:57.515Z,5.49
2023-01-10T02:34:50.032Z,5.49
2023-01-10T02:37:38.683Z,5.43
2023-01-10T02:40:19.536Z,5.41
2023-01-10T02:42:52.948Z,5.39
2023-01-10T02:45:20.080Z,5.41
2023-01-10T02:47:47.720Z,5.42
2023-01-10T02:50:59.404Z,5.42
2023-01-10T02:53:30.422Z,5.37
2023-01-10T02:56:36.486Z,5.33
2023-01-10T02:59:15.846Z,5.31
2023-01-10T03:01:46.008Z,5.36
2023-01-10T03:04:18.093Z,5.36
2023-01-10T03:06:51.452Z,5.36
2023-01-10T03:09:34.314Z,5.35
2023-01-10T03:12:15.103Z,5.33
2023-01-10T03:14:43.217Z,5.35
2023-01-10T03:17:12.228Z,5.33
2023-01-10T03:19:43.855Z,5.26
2023-01-10T03:22:11.711Z,5.30
2023-01-10T03:24:43.437Z,5.31
2023-01-10T03:27:10.901Z,5.26
2023-01-10T03:29:46.722Z,5.23
2023-01-10T03:32:15.717Z,5.24
2023-01-10T03:34:43.922Z,5.24
2023-01-10T03:37:18.422Z,5.26
2023-01-10T03:39:51.902Z,5.22
2023-01-10T03:43:00.148Z,5.17
2023-01-10T03:45:33.545Z,5.15
2023-01-10T03:48:03.383Z,5.19
2023-01-10T03:50:31.624Z,5.20
2023-01-10T03:52:59.287Z,5.17
2023-01-10T03:55:29.136Z,5.20
2023-01-10T03:57:56.368Z,5.21
2023-01-10T04:00:24.449Z,5.17
2023-01-10T04:02:51.873Z,5.19
2023-01-10T04:05:19.759Z,5.19
2023-01-10T04:07:47.862Z,5.17
2023-01-10T04:10:15.916Z,5.17
2023-01-10T04:12:43.264Z,5.18
2023-01-10T04:15:11.052Z,5.14
2023-01-10T04:17:38.443Z,5.20
2023-01-10T04:20:06.653Z,5.22
2023-01-10T04:22:33.980Z,5.22
2023-01-10T04:25:01.584Z,5.24
2023-01-10T04:27:28.900Z,5.20
2023-01-10T04:29:56.303Z,5.26
2023-01-10T04:32:23.551Z,5.21
2023-01-10T04:34:51.383Z,5.26
2023-01-10T04:37:18.682Z,5.17
2023-01-10T04:39:46.266Z,5.24
2023-01-10T04:42:14.214Z,5.26
2023-01-10T04:44:41.847Z,5.23
2023-01-10T04:47:09.303Z,5.19
2023-01-10T04:49:36.960Z,5.16
2023-01-10T04:52:04.268Z,5.18
2023-01-10T04:54:31.875Z,5.16
2023-01-10T04:56:59.132Z,5.14
2023-01-10T04:59:26.665Z,5.10
2023-01-10T05:01:54.052Z,5.13
2023-01-10T05:04:22.338Z,5.15
2023-01-10T05:06:49.602Z,5.13
2023-01-10T05:09:17.289Z,5.09
2023-01-10T05:11:44.627Z,5.16
2023-01-10T05:14:12.112Z,5.16
2023-01-10T05:16:39.660Z,5.16
2023-01-10T05:19:07.289Z,5.15
2023-01-10T05:21:34.518Z,5.14
2023-01-10T05:24:01.921Z,5.18
2023-01-10T05:26:29.390Z,5.19
2023-01-10T05:28:56.913Z,5.20
2023-01-10T05:31:24.326Z,5.23
2023-01-10T05:33:53.017Z,5.23
2023-01-10T05:36:20.448Z,5.21
2023-01-10T05:38:48.463Z,5.22
2023-01-10T05:41:15.708Z,5.17
2023-01-10T05:43:43.371Z,5.17
2023-01-10T05:46:10.793Z,5.17
2023-01-10T05:48:38.526Z,5.22
2023-01-10T05:51:06.225Z,5.18
2023-01-10T05:53:33.961Z,5.24
2023-01-10T05:56:02.693Z,5.20
2023-01-10T05:58:30.302Z,5.21
2023-01-10T06:00:57.953Z,5.21
2023-01-10T06:03:26.854Z,5.21
2023-01-10T06:05:57.744Z,5.20
2023-01-10T06:08:25.484Z,5.23
2023-01-10T06:10:52.857Z,5.22
2023-01-10T06:13:20.656Z,5.22
2023-01-10T06:15:48.684Z,5.21
2023-01-10T06:18:16.722Z,5.18
2023-01-10T06:20:44.201Z,5.18
2023-01-10T06:23:12.243Z,5.12
2023-01-10T06:25:41.705Z,5.10
2023-01-10T06:28:11.061Z,5.10
2023-01-10T06:30:39.094Z,5.11
2023-01-10T06:33:07.656Z,5.07
2023-01-10T06:35:35.748Z,5.03
2023-01-10T06:38:03.704Z,4.93
2023-01-10T06:40:31.017Z,4.98
2023-01-10T06:42:59.314Z,4.96
2023-01-10T06:45:26.599Z,4.94
2023-01-10T06:47:54.245Z,4.91
2023-01-10T06:50:21.716Z,4.95
2023-01-10T06:52:57.773Z,4.88
2023-01-10T06:55:26.032Z,4.88
2023-01-10T06:57:58.215Z,4.84
2023-01-10T07:00:27.635Z,4.89
2023-01-10T07:02:56.828Z,4.88
2023-01-10T07:05:24.638Z,4.87
2023-01-10T07:07:52.141Z,4.91
2023-01-10T07:10:19.751Z,4.89
2023-01-10T07:12:47.334Z,4.91
2023-01-10T07:15:14.633Z,4.92
2023-01-10T07:17:42.206Z,4.94
2023-01-10T07:20:10.481Z,4.93
2023-01-10T07:22:38.026Z,4.96
2023-01-10T07:25:06.112Z,4.97
2023-01-10T07:27:33.939Z,4.99
2023-01-10T07:30:01.336Z,4.97
2023-01-10T07:32:28.958Z,4.97
2023-01-10T07:34:56.330Z,4.97
2023-01-10T07:37:24.043Z,4.94
2023-01-10T07:39:51.291Z,4.96
2023-01-10T07:42:18.915Z,4.99
2023-01-10T07:44:47.502Z,5.01
2023-01-10T07:47:16.280Z,5.00
2023-01-10T07:49:43.610Z,4.96
2023-01-10T07:52:11.310Z,4.93
2023-01-10T07:54:38.574Z,4.91
2023-01-10T07:57:06.254Z,4.88
2023-01-10T07:59:33.477Z,4.86
2023-01-10T08:02:01.287Z,4.78
2023-01-10T08:04:28.887Z,4.81
2023-01-10T08:06:56.532Z,4.76
2023-01-10T08:09:23.836Z,4.69
2023-01-10T08:11:51.435Z,4.74
2023-01-10T08:14:18.799Z,4.73
2023-01-10T08:16:46.500Z,4.69
2023-01-10T08:19:16.896Z,4.68
2023-01-10T08:21:44.707Z,4.65
2023-01-10T08:24:12.081Z,4.65
2023-01-10T08:26:39.723Z,4.65
2023-01-10T08:29:07.535Z,4.66
2023-01-10T08:31:35.375Z,4.67
2023-01-10T08:34:02.831Z,4.70
2023-01-10T08:36:30.541Z,4.62
2023-01-10T08:38:58.259Z,4.65
2023-01-10T08:41:26.009Z,4.63
2023-01-10T08:43:53.298Z,4.62
2023-01-10T08:46:21.119Z,4.62
2023-01-10T08:48:50.513Z,4.65
2023-01-10T08:51:18.690Z,4.56
2023-01-10T08:53:45.967Z,4.54
2023-01-10T08:56:13.642Z,4.63
2023-01-10T08:58:40.978Z,4.64
2023-01-10T09:01:08.970Z,4.68
2023-01-10T09:03:36.284Z,4.67
2023-01-10T09:06:04.030Z,4.69
2023-01-10T09:08:31.298Z,4.71
2023-01-10T09:11:00.829Z,4.71
2023-01-10T09:13:29.419Z,4.70
2023-01-10T09:15:57.588Z,4.73
2023-01-10T09:18:25.335Z,4.72
2023-01-10T09:20:53.365Z,4.69
2023-01-10T09:23:22.244Z,4.70
2023-01-10T09:25:51.890Z,4.76
2023-01-10T09:28:21.351Z,4.79
2023-01-10T09:30:48.950Z,4.74
2023-01-10T09:33:16.444Z,4.71
2023-01-10T09:35:44.407Z,4.70
2023-01-10T09:38:14.835Z,4.73
2023-01-10T09:41:20.147Z,4.77
2023-01-10T09:44:01.002Z,4.76
2023-01-10T09:46:34.984Z,4.81
2023-01-10T09:49:39.627Z,4.87
2023-01-10T09:52:31.502Z,4.88
2023-01-10T09:55:03.887Z,4.89
2023-01-10T09:57:31.549Z,4.92
2023-01-10T09:59:59.187Z,4.93
2023-01-10T10:02:33.379Z,4.91
2023-01-10T10:05:11.942Z,4.93
2023-01-10T10:07:39.940Z,4.95
2023-01-10T10:10:19.158Z,4.90
2023-01-10T10:13:08.049Z,4.85
2023-01-10T10:15:35.293Z,4.91
2023-01-10T10:18:19.288Z,4.94
2023-01-10T10:20:54.118Z,4.94
2023-01-10T10:23:49.141Z,4.94
2023-01-10T10:26:39.338Z,4.90
2023-01-10T10:29:44.633Z,4.94
2023-01-10T10:32:41.052Z,4.96
2023-01-10T10:35:15.971Z,5.02
2023-01-10T10:37:47.197Z,4.99
2023-01-10T10:40:15.016Z,5.03
2023-01-10T10:42:47.028Z,5.04
2023-01-10T10:45:17.693Z,5.04
2023-01-10T10:47:52.729Z,5.07
2023-01-10T10:50:23.257Z,5.13
2023-01-10T10:52:50.534Z,5.19
2023-01-10T10:55:28.420Z,5.25
2023-01-10T10:58:00.486Z,5.30
2023-01-10T11:00:29.811Z,5.32
2023-01-10T11:03:07.759Z,5.32
2023-01-10T11:05:38.510Z,5.35
2023-01-10T11:08:14.140Z,5.40
2023-01-10T11:10:44.642Z,5.42
2023-01-10T11:13:38.588Z,5.42
2023-01-10T11:16:06.593Z,5.45
2023-01-10T11:18:34.705Z,5.44
2023-01-10T11:21:06.315Z,5.49
2023-01-10T11:23:53.080Z,5.46
2023-01-10T11:26:50.109Z,5.39
2023-01-10T11:29:20.046Z,5.42
2023-01-10T11:31:49.431Z,5.45
2023-01-10T11:34:21.940Z,5.40
2023-01-10T11:36:54.767Z,5.42
2023-01-10T11:39:22.355Z,5.44
2023-01-10T11:41:53.227Z,5.43
2023-01-10T11:44:26.534Z,5.44
2023-01-10T11:47:00.014Z,5.27
2023-01-10T11:49:31.572Z,5.45
2023-01-10T11:52:26.237Z,5.46
2023-01-10T11:54:58.472Z,5.42
2023-01-10T11:57:29.009Z,5.42
2023-01-10T12:00:15.339Z,5.43
2023-01-10T12:02:44.640Z,5.43
2023-01-10T12:05:22.207Z,5.34
2023-01-10T12:08:00.148Z,5.39
2023-01-10T12:10:29.025Z,5.43
2023-01-10T12:12:58.838Z,5.44
2023-01-10T12:15:29.013Z,5.44
2023-01-10T12:17:59.301Z,5.42
2023-01-10T12:20:28.645Z,5.44
2023-01-10T12:23:00.423Z,5.42
2023-01-10T12:25:33.356Z,5.40
2023-01-10T12:28:01.358Z,5.42
2023-01-10T12:30:38.913Z,5.45
2023-01-10T12:33:16.364Z,5.40
2023-01-10T12:35:52.596Z,5.34
2023-01-10T12:39:04.337Z,5.36
2023-01-10T12:42:21.521Z,5.32
2023-01-10T12:44:53.933Z,5.25
2023-01-10T12:47:46.020Z,5.29
2023-01-10T12:50:23.473Z,5.30
2023-01-10T12:52:58.037Z,5.31
2023-01-10T12:55:28.964Z,5.28
2023-01-10T12:58:02.755Z,5.22
2023-01-10T13:00:40.579Z,5.24
2023-01-10T13:03:25.200Z,5.26
2023-01-10T13:05:54.450Z,5.27
2023-01-10T13:08:24.801Z,5.23
2023-01-10T13:10:54.538Z,5.30
2023-01-10T13:13:44.329Z,5.27
2023-01-10T13:16:24.104Z,5.25
2023-01-10T13:19:09.944Z,5.26
2023-01-10T13:21:41.601Z,5.25
2023-01-10T13:24:28.984Z,5.26
2023-01-10T13:27:02.219Z,5.23
2023-01-10T13:29:32.097Z,5.24
2023-01-10T13:32:02.197Z,5.21
2023-01-10T13:34:34.313Z,5.22
2023-01-10T13:37:05.346Z,5.23
2023-01-10T13:39:40.615Z,5.25
2023-01-10T13:42:26.826Z,5.25
2023-01-10T13:45:10.231Z,5.24
2023-01-10T13:47:41.090Z,5.21
2023-01-10T13:50:34.174Z,5.21
2023-01-10T13:53:02.339Z,5.22
2023-01-10T13:55:38.772Z,5.24
2023-01-10T13:58:21.205Z,5.24
2023-01-10T14:01:11.608Z,5.17
2023-01-10T14:04:00.375Z,5.19
2023-01-10T14:06:27.711Z,5.17
2023-01-10T14:08:56.747Z,5.16
2023-01-10T14:11:27.690Z,5.13
2023-01-10T14:14:02.070Z,5.14
2023-01-10T14:16:33.756Z,5.13
2023-01-10T14:19:03.275Z,5.14
2023-01-10T14:21:31.721Z,5.10
2023-01-10T14:23:59.390Z,5.12
2023-01-10T14:26:36.034Z,5.09
2023-01-10T14:29:15.877Z,5.06
2023-01-10T14:31:47.134Z,5.01
2023-01-10T14:34:36.925Z,4.96
2023-01-10T14:37:16.198Z,4.90
2023-01-10T14:39:44.106Z,4.90
2023-01-10T14:42:15.494Z,4.71
2023-01-10T14:44:49.468Z,4.81
2023-01-10T14:47:31.438Z,4.77
2023-01-10T14:50:02.863Z,4.81
2023-01-10T14:52:30.690Z,4.75
2023-01-10T14:54:58.208Z,4.74
2023-01-10T14:57:25.498Z,4.76
2023-01-10T15:00:17.467Z,4.69
2023-01-10T15:02:46.638Z,4.74
2023-01-10T15:05:37.651Z,4.68
2023-01-10T15:08:22.474Z,4.58
2023-01-10T15:11:01.281Z,4.54
2023-01-10T15:13:30.424Z,4.54
2023-01-10T15:15:58.034Z,4.54
2023-01-10T15:18:43.570Z,4.53
2023-01-10T15:21:13.184Z,4.51
2023-01-10T15:23:42.670Z,4.49
2023-01-10T15:26:17.971Z,4.49
2023-01-10T15:28:49.200Z,4.47
2023-01-10T15:31:17.244Z,4.42
2023-01-10T15:33:46.827Z,4.43
2023-01-10T15:36:17.219Z,4.20
2023-01-10T15:38:46.309Z,4.36
2023-01-10T15:41:19.537Z,4.34
2023-01-10T15:43:50.050Z,4.32
2023-01-10T15:46:23.011Z,4.32
2023-01-10T15:49:03.038Z,4.25
2023-01-10T15:51:35.914Z,4.22
2023-01-10T15:54:04.243Z,4.19
2023-01-10T15:56:38.213Z,4.24
2023-01-10T15:59:21.776Z,4.24
2023-01-10T16:02:16.856Z,4.15
2023-01-10T16:04:46.287Z,4.14
2023-01-10T16:07:19.959Z,4.11
2023-01-10T16:10:00.519Z,4.13
2023-01-10T16:13:00.128Z,4.08
2023-01-10T16:15:32.305Z,4.06
2023-01-10T16:18:00.299Z,4.05
2023-01-10T16:20:39.617Z,4.03
2023-01-10T16:23:14.447Z,3.96
2023-01-10T16:25:45.174Z,3.99
2023-01-10T16:28:14.502Z,3.95
2023-01-10T16:30:46.634Z,3.99
2023-01-10T16:33:17.822Z,3.95
2023-01-10T16:35:46.147Z,3.94
2023-01-10T16:38:15.935Z,3.87
2023-01-10T16:40:48.249Z,3.85
2023-01-10T16:43:18.648Z,3.91
2023-01-10T16:45:50.711Z,3.86
2023-01-10T16:48:19.962Z,3.85
2023-01-10T16:50:48.445Z,3.80
2023-01-10T16:53:18.049Z,3.73
2023-01-10T16:55:48.460Z,3.72
2023-01-10T16:58:17.584Z,3.70
2023-01-10T17:00:47.135Z,3.66
2023-01-10T17:03:19.584Z,3.63
2023-01-10T17:05:48.031Z,3.64
2023-01-10T17:08:23.588Z,3.57
2023-01-10T17:10:56.419Z,3.54
2023-01-10T17:13:27.317Z,3.54
2023-01-10T17:15:54.809Z,3.54
2023-01-10T17:18:25.120Z,3.47
2023-01-10T17:20:53.502Z,3.46
2023-01-10T17:23:21.252Z,3.43
2023-01-10T17:25:49.947Z,3.38
2023-01-10T17:28:19.533Z,3.41
2023-01-10T17:30:46.735Z,3.33
2023-01-10T17:33:14.839Z,3.43
2023-01-10T17:35:43.242Z,3.44
2023-01-10T17:38:13.170Z,3.44
2023-01-10T17:40:45.120Z,3.33
2023-01-10T17:43:13.747Z,3.40
2023-01-10T17:45:45.798Z,3.42
2023-01-10T17:48:16.230Z,3.39
2023-01-10T17:50:47.415Z,3.35
2023-01-10T17:53:17.557Z,3.35
2023-01-10T17:55:46.123Z,3.37
2023-01-10T17:58:14.457Z,3.36
2023-01-10T18:00:41.986Z,3.36
2023-01-10T18:03:10.207Z,3.37
2023-01-10T18:05:39.867Z,3.36
2023-01-10T18:08:08.161Z,3.34
2023-01-10T18:10:35.742Z,3.36
2023-01-10T18:13:03.734Z,3.37
2023-01-10T18:15:31.233Z,3.38
2023-01-10T18:17:58.927Z,3.41
2023-01-10T18:20:27.881Z,3.41
2023-01-10T18:23:15.799Z,3.44
2023-01-10T18:25:43.367Z,3.42
2023-01-10T18:28:11.080Z,3.40
2023-01-10T18:30:40.738Z,3.35
2023-01-10T18:33:08.681Z,3.31
2023-01-10T18:35:36.071Z,3.23
2023-01-10T18:38:04.213Z,3.28
2023-01-10T18:40:31.607Z,3.20
2023-01-10T18:42:59.371Z,3.19
2023-01-10T18:45:27.196Z,3.17
2023-01-10T18:47:59.128Z,3.22
2023-01-10T18:50:27.041Z,3.21
2023-01-10T18:52:54.794Z,3.22
2023-01-10T18:55:22.204Z,3.22
2023-01-10T18:57:49.821Z,3.26
2023-01-10T19:00:17.492Z,3.26
2023-01-10T19:02:46.582Z,3.23
2023-01-10T19:05:15.290Z,3.20
2023-01-10T19:07:43.097Z,3.18
2023-01-10T19:10:11.051Z,3.14
2023-01-10T19:12:42.602Z,3.06
2023-01-10T19:15:10.648Z,3.06
2023-01-10T19:17:38.491Z,3.02
2023-01-10T19:20:06.445Z,2.99
2023-01-10T19:22:34.512Z,3.04
2023-01-10T19:25:02.393Z,2.94
2023-01-10T19:27:30.515Z,3.00
2023-01-10T19:29:58.201Z,3.01
2023-01-10T19:32:26.053Z,3.00
2023-01-10T19:34:53.547Z,2.96
2023-01-10T19:37:21.146Z,2.96
2023-01-10T19:39:48.487Z,2.93
2023-01-10T19:42:16.395Z,2.97
2023-01-10T19:44:43.959Z,3.02
2023-01-10T19:47:12.531Z,3.02
2023-01-10T19:49:40.637Z,3.03
2023-01-10T19:52:08.630Z,3.01
2023-01-10T19:54:37.569Z,2.97
2023-01-10T19:57:05.927Z,2.97
2023-01-10T19:59:33.373Z,2.92
2023-01-10T20:02:01.861Z,2.92
2023-01-10T20:04:29.863Z,2.92
2023-01-10T20:06:57.838Z,2.90
2023-01-10T20:09:25.970Z,2.78
2023-01-10T20:11:54.141Z,2.88
2023-01-10T20:14:22.460Z,2.88
2023-01-10T20:16:51.339Z,2.87
2023-01-10T20:19:24.496Z,2.62
2023-01-10T20:21:55.665Z,2.70
2023-01-10T20:24:23.331Z,2.68
2023-01-10T20:26:51.684Z,2.88
2023-01-10T20:29:19.813Z,2.88
2023-01-10T20:31:49.866Z,2.83
2023-01-10T20:34:17.218Z,2.81
2023-01-10T20:36:45.100Z,2.81
2023-01-10T20:39:13.195Z,2.70
2023-01-10T20:41:41.050Z,2.61
2023-01-10T20:44:08.397Z,2.60
2023-01-10T20:46:37.448Z,2.52
2023-01-10T20:49:05.162Z,2.50
2023-01-10T20:51:37.333Z,2.46
2023-01-10T20:54:08.398Z,2.36
2023-01-10T20:56:37.235Z,2.34
2023-01-10T20:59:05.580Z,2.26
2023-01-10T21:01:35.664Z,2.21
2023-01-10T21:04:05.921Z,2.16
2023-01-10T21:06:35.493Z,2.05
2023-01-10T21:09:05.247Z,1.98
2023-01-10T21:11:41.303Z,1.96
2023-01-10T21:14:19.399Z,1.97
2023-01-10T21:16:49.451Z,1.86
2023-01-10T21:19:17.043Z,1.87
2023-01-10T21:21:44.943Z,1.88
2023-01-10T21:24:12.481Z,1.81
2023-01-10T21:26:40.496Z,1.90
2023-01-10T21:29:07.842Z,1.91
2023-01-10T21:31:35.403Z,1.85
2023-01-10T21:34:02.695Z,1.89
2023-01-10T21:36:30.386Z,1.88
2023-01-10T21:38:57.614Z,1.85
2023-01-10T21:41:43.692Z,1.87
2023-01-10T21:44:10.895Z,1.87
2023-01-10T21:46:38.805Z,1.92
2023-01-10T21:49:06.277Z,1.93
2023-01-10T21:51:33.905Z,1.95
2023-01-10T21:54:01.497Z,1.84
2023-01-10T21:56:29.800Z,1.80
2023-01-10T21:58:57.198Z,1.62
2023-01-10T22:01:25.021Z,1.58
2023-01-10T22:03:53.264Z,1.46
2023-01-10T22:06:20.962Z,1.50
2023-01-10T22:08:49.674Z,1.56
2023-01-10T22:11:17.275Z,1.47
2023-01-10T22:13:44.682Z,1.39
2023-01-10T22:16:13.699Z,1.31
2023-01-10T22:18:40.922Z,1.31
2023-01-10T22:21:08.512Z,1.34
2023-01-10T22:23:35.852Z,1.29
2023-01-10T22:26:06.794Z,1.31
2023-01-10T22:28:34.470Z,1.33
2023-01-10T22:31:02.393Z,1.32
2023-01-10T22:33:32.254Z,1.21
2023-01-10T22:36:10.925Z,1.18
2023-01-10T22:38:38.368Z,1.20
2023-01-10T22:41:11.005Z,1.23
2023-01-10T22:43:38.289Z,1.26
2023-01-10T22:46:06.538Z,1.27
2023-01-10T22:48:37.589Z,1.17
2023-01-10T22:51:08.205Z,1.16
2023-01-10T22:53:35.667Z,1.13
2023-01-10T22:56:05.175Z,1.10
2023-01-10T22:58:32.515Z,1.14
2023-01-10T23:01:03.763Z,0.92
2023-01-10T23:03:31.089Z,0.89
2023-01-10T23:05:59.619Z,0.85
2023-01-10T23:08:27.611Z,0.89
2023-01-10T23:10:55.124Z,0.88
2023-01-10T23:13:23.188Z,0.98
2023-01-10T23:15:57.588Z,1.03
2023-01-10T23:18:26.369Z,0.97
2023-01-10T23:20:54.588Z,1.02
2023-01-10T23:23:22.518Z,1.05
2023-01-10T23:26:02.087Z,1.04
2023-01-10T23:28:34.721Z,1.05
2023-01-10T23:31:03.455Z,1.11
2023-01-10T23:33:30.814Z,1.16
2023-01-10T23:35:58.343Z,1.04
2023-01-10T23:38:25.636Z,1.14
2023-01-10T23:40:53.170Z,1.17
2023-01-10T23:43:20.669Z,1.16
2023-01-10T23:45:48.394Z,1.13
2023-01-10T23:48:15.598Z,1.14
2023-01-10T23:50:42.991Z,1.18
2023-01-10T23:53:10.272Z,1.24
2023-01-10T23:55:37.920Z,1.21
2023-01-10T23:58:05.236Z,1.27
